Smithers Airport
CYYD : now visible

Airfield :











YOU CAN JOIN US ON...

 
LOGIN :

Register | Disclaimer

   EN    FR    IT 

 









Legend :    VFR   Marginal VFR   IFR   Intensive IFR   Very Intensive IFR
Visi :
Ceiling :
>= 8 km
>= 3000ft
5 to 8 km
1000 to 3000 ft
1500m to 5 km
500 to 1000 ft
800 to 1500m
200 to 500 ft
< 800m
< 200 ft
Symbols :   Thunderstorms  Fog  Heavy snow  Heavy precipitations  Wind > 20 kt






- Airport Elevation : 1712 ft
- IATA code : YYD


CYYD - Smithers

CURRENT METAR :
  • 090300Z 00000KT 25SM SCT230 M12/M13 A3021 RMK CI4 SLP265

EXPIRED METARs :
  • 090200Z 00000KT 25SM FEW130 SCT230 M11/M13 A3021 RMK AC1CI3 SLP265
  • 090100Z 00000KT 25SM FEW130 BKN230 M10/M11 A3021 RMK AC2CI4 SLP264
  • 090000Z 17002KT 25SM SCT130 BKN230 M09/M11 A3020 RMK AC4CI2 SLP262

TAF TAF CYYD
Valid from the 09 at 01:00 until the 09 at 06:00 UTC


090038Z 0901/0906 VRB03KT P6SM FEW009 BKN030 BKN120
TEMPO 0901/0906 BKN009 RMK NXT FCST WILL BE ISSUED AT 091345Z



MET'MAP, your aeronautical weather chart ! - Copyright ORBIFLY December 2007 - Disclaimer

ORBIFLY MET'MAP TEAM :

Programming & Development : Alexandra Zaïnal
Concept & original design : Baudouin d'Aumeries
Assistance for programming : Marc-Olivier Méhu
Technical & hardware support : Manuel Goepfert

Contact : metmap@orbifly.com




SOURCES & CREDITS :

   NOAA       Earth
Advisory